Gytsjerk, Netherlands
Current Conditions -  °F | °C
As of 11:55 PM on Monday 24 Nov 2014 (Local Time) from EHLW Reporting Station
Clear Clear  
Wind Chill: 36°   Ceiling: Unl
Heat Index: 39°   Visibility: 6mi
Dew Point: 37°   Wind: 5mph
Humidity: 93%   Direction: 200°SSW
Pressure: 30.33"   Gusts: NA
Location:  53.24°N, 5.9°E
Report Text: EHLW 242255Z AUTO 20004KT 9999 NCD 04/03 Q1027 BLU
Loading
Personal Weather Stations






























Interactive Weather Map New forecast layout! Learn more

10-Day Weather Forecast

Advertisements
Track Severe Weather on mobile